createdAt,value
2023-04-21T00:01:12.836Z,7.70
2023-04-21T00:03:42.012Z,7.70
2023-04-21T00:06:10.610Z,7.60
2023-04-21T00:08:40.396Z,7.60
2023-04-21T00:11:10.388Z,7.60
2023-04-21T00:13:38.926Z,7.50
2023-04-21T00:16:08.056Z,7.50
2023-04-21T00:18:36.425Z,7.50
2023-04-21T00:21:05.090Z,7.50
2023-04-21T00:23:33.401Z,7.60
2023-04-21T00:26:02.854Z,7.60
2023-04-21T00:28:32.899Z,7.60
2023-04-21T00:31:01.362Z,7.50
2023-04-21T00:33:29.640Z,7.50
2023-04-21T00:35:59.208Z,7.50
2023-04-21T00:38:29.035Z,7.50
2023-04-21T00:40:57.344Z,7.50
2023-04-21T00:43:26.389Z,7.40
2023-04-21T00:45:57.371Z,7.40
2023-04-21T00:48:25.566Z,7.40
2023-04-21T00:50:53.815Z,7.40
2023-04-21T00:53:23.118Z,7.30
2023-04-21T00:55:52.802Z,7.30
2023-04-21T00:58:21.234Z,7.20
2023-04-21T01:00:49.873Z,7.20
2023-04-21T01:03:19.654Z,7.10
2023-04-21T01:05:47.992Z,7.10
2023-04-21T01:08:16.742Z,7.10
2023-04-21T01:10:45.006Z,7.00
2023-04-21T01:13:14.288Z,7.00
2023-04-21T01:15:42.537Z,7.00
2023-04-21T01:18:10.858Z,7.00
2023-04-21T01:20:40.646Z,6.90
2023-04-21T01:23:10.247Z,7.00
2023-04-21T01:25:38.561Z,7.00
2023-04-21T01:28:06.876Z,7.00
2023-04-21T01:30:35.158Z,7.00
2023-04-21T01:33:03.689Z,7.00
2023-04-21T01:35:32.052Z,7.00
2023-04-21T01:38:01.392Z,7.00
2023-04-21T01:40:31.156Z,7.00
2023-04-21T01:42:59.501Z,7.00
2023-04-21T01:45:27.781Z,7.00
2023-04-21T01:47:56.068Z,7.00
2023-04-21T01:50:24.626Z,7.00
2023-04-21T01:52:52.898Z,7.00
2023-04-21T01:55:21.597Z,7.00
2023-04-21T01:57:51.398Z,7.00
2023-04-21T02:00:20.399Z,7.10
2023-04-21T02:02:49.727Z,7.10
2023-04-21T02:05:18.788Z,7.10
2023-04-21T02:07:47.085Z,7.00
2023-04-21T02:10:16.154Z,7.00
2023-04-21T02:12:45.789Z,7.00
2023-04-21T02:15:15.441Z,7.00
2023-04-21T02:17:44.994Z,7.00
2023-04-21T02:20:13.815Z,7.00
2023-04-21T02:22:42.080Z,7.00
2023-04-21T02:25:10.693Z,7.00
2023-04-21T02:27:40.457Z,7.00
2023-04-21T02:30:10.013Z,6.90
2023-04-21T02:32:39.908Z,6.90
2023-04-21T02:35:08.759Z,6.90
2023-04-21T02:37:36.983Z,6.90
2023-04-21T02:40:06.555Z,6.90
2023-04-21T02:42:35.181Z,6.90
2023-04-21T02:45:03.568Z,6.90
2023-04-21T02:47:31.987Z,6.90
2023-04-21T02:50:01.797Z,6.90
2023-04-21T02:52:30.198Z,6.90
2023-04-21T02:54:58.404Z,6.80
2023-04-21T02:57:26.826Z,6.80
2023-04-21T02:59:55.135Z,6.80
2023-04-21T03:02:23.559Z,6.80
2023-04-21T03:04:53.096Z,6.80
2023-04-21T03:07:22.702Z,6.80
2023-04-21T03:09:51.182Z,6.80
2023-04-21T03:12:19.428Z,6.70
2023-04-21T03:14:47.979Z,6.70
2023-04-21T03:17:16.305Z,6.60
2023-04-21T03:19:44.570Z,6.60
2023-04-21T03:22:13.354Z,6.60
2023-04-21T03:24:42.985Z,6.50
2023-04-21T03:27:11.360Z,6.50
2023-04-21T03:29:39.653Z,6.50
2023-04-21T03:32:07.967Z,6.50
2023-04-21T03:34:36.346Z,6.50
2023-04-21T03:37:06.493Z,6.40
2023-04-21T03:39:34.816Z,6.40
2023-04-21T03:42:05.912Z,6.30
2023-04-21T03:44:34.220Z,6.30
2023-04-21T03:47:04.448Z,6.30
2023-04-21T03:49:35.311Z,6.30
2023-04-21T03:52:03.536Z,6.30
2023-04-21T03:54:31.824Z,6.30
2023-04-21T03:57:00.120Z,6.30
2023-04-21T03:59:29.800Z,6.30
2023-04-21T04:01:58.079Z,6.30
2023-04-21T04:04:26.632Z,6.30
2023-04-21T04:06:55.237Z,6.30
2023-04-21T04:09:23.495Z,6.20
2023-04-21T04:11:51.922Z,6.20
2023-04-21T04:14:20.266Z,6.20
2023-04-21T04:16:49.832Z,6.20
2023-04-21T04:19:18.316Z,6.20
2023-04-21T04:21:48.953Z,6.10
2023-04-21T04:24:17.467Z,6.10
2023-04-21T04:26:45.718Z,6.20
2023-04-21T04:29:14.126Z,6.10
2023-04-21T04:31:42.530Z,6.10
2023-04-21T04:34:12.425Z,6.10
2023-04-21T04:36:40.702Z,6.10
2023-04-21T04:39:10.318Z,6.00
2023-04-21T04:41:38.812Z,6.00
2023-04-21T04:44:07.851Z,6.00
2023-04-21T04:46:36.380Z,6.00
2023-04-21T04:49:04.914Z,6.00
2023-04-21T04:51:34.634Z,6.00
2023-04-21T04:54:02.971Z,6.00
2023-04-21T04:56:31.821Z,6.00
2023-04-21T04:59:00.124Z,6.00
2023-04-21T05:01:30.896Z,5.90
2023-04-21T05:03:59.704Z,5.90
2023-04-21T05:06:28.507Z,5.90
2023-04-21T05:08:58.214Z,5.90
2023-04-21T05:11:26.398Z,5.90
2023-04-21T05:13:54.628Z,5.90
2023-04-21T05:16:22.906Z,5.90
2023-04-21T05:18:53.902Z,5.90
2023-04-21T05:21:27.689Z,5.90
2023-04-21T05:23:56.950Z,5.90
2023-04-21T05:26:27.737Z,5.90
2023-04-21T05:28:56.327Z,5.90
2023-04-21T05:31:25.047Z,5.90
2023-04-21T05:33:53.597Z,5.90
2023-04-21T05:36:21.803Z,5.80
2023-04-21T05:38:54.914Z,5.80
2023-04-21T05:41:24.115Z,5.90
2023-04-21T05:43:53.807Z,5.80
2023-04-21T05:46:56.836Z,5.80
2023-04-21T05:50:07.688Z,5.80
2023-04-21T05:53:01.678Z,5.80
2023-04-21T05:59:01.338Z,5.80
2023-04-21T06:01:29.820Z,5.80
2023-04-21T06:04:09.869Z,5.80
2023-04-21T06:06:48.776Z,5.80
2023-04-21T06:09:27.460Z,5.80
2023-04-21T06:11:57.684Z,5.80
2023-04-21T06:14:36.724Z,5.90
2023-04-21T06:17:17.028Z,5.90
2023-04-21T06:19:45.411Z,5.90
2023-04-21T06:22:17.264Z,6.00
2023-04-21T06:25:16.220Z,6.00
2023-04-21T06:27:46.063Z,6.10
2023-04-21T06:30:25.499Z,6.10
2023-04-21T06:33:04.660Z,6.20
2023-04-21T06:35:52.081Z,6.30
2023-04-21T06:38:32.901Z,6.40
2023-04-21T06:41:11.829Z,6.60
2023-04-21T06:43:42.243Z,6.90
2023-04-21T06:46:18.807Z,7.30
2023-04-21T06:48:50.244Z,7.60
2023-04-21T06:51:18.545Z,8.00
2023-04-21T06:53:46.766Z,8.30
2023-04-21T06:56:14.991Z,8.60
2023-04-21T06:58:43.276Z,9.00
2023-04-21T07:01:13.014Z,9.30
2023-04-21T07:03:41.541Z,9.50
2023-04-21T07:06:10.077Z,9.70
2023-04-21T07:08:38.435Z,10.00
2023-04-21T07:11:06.925Z,10.30
2023-04-21T07:13:35.456Z,10.50
2023-04-21T07:16:04.102Z,10.80
2023-04-21T07:18:34.662Z,11.00
2023-04-21T07:21:03.104Z,11.30
2023-04-21T07:23:31.366Z,11.60
2023-04-21T07:25:59.927Z,11.80
2023-04-21T07:28:28.104Z,12.20
2023-04-21T07:30:56.764Z,12.60
2023-04-21T07:33:27.446Z,13.00
2023-04-21T07:35:57.404Z,13.30
2023-04-21T07:38:25.662Z,13.60
2023-04-21T07:40:53.866Z,13.70
2023-04-21T07:43:22.139Z,14.10
2023-04-21T07:45:52.096Z,14.50
2023-04-21T07:48:20.666Z,14.70
2023-04-21T07:50:50.423Z,15.10
2023-04-21T07:53:20.170Z,15.40
2023-04-21T07:55:48.469Z,15.90
2023-04-21T07:58:16.969Z,16.40
2023-04-21T08:00:45.347Z,16.90
2023-04-21T08:03:13.741Z,17.30
2023-04-21T08:05:42.295Z,17.50
2023-04-21T08:08:10.680Z,17.60
2023-04-21T08:10:40.949Z,18.00
2023-04-21T08:13:09.421Z,18.50
2023-04-21T08:15:37.760Z,18.70
2023-04-21T08:18:06.332Z,18.90
2023-04-21T08:20:34.747Z,18.90
2023-04-21T08:23:03.207Z,19.20
2023-04-21T08:25:31.625Z,19.60
2023-04-21T08:28:01.594Z,19.80
2023-04-21T08:30:30.246Z,20.00
2023-04-21T08:32:58.524Z,20.20
2023-04-21T08:35:27.110Z,20.70
2023-04-21T08:37:55.431Z,20.80
2023-04-21T08:40:30.739Z,20.60
2023-04-21T08:42:59.568Z,20.10
2023-04-21T08:45:30.400Z,19.60
2023-04-21T08:48:01.032Z,19.60
2023-04-21T08:50:31.640Z,19.30
2023-04-21T08:53:00.345Z,18.90
2023-04-21T08:55:31.490Z,19.00
2023-04-21T08:58:00.099Z,19.50
2023-04-21T09:00:30.214Z,18.90
2023-04-21T09:03:02.156Z,18.80
2023-04-21T09:05:33.000Z,18.40
2023-04-21T09:08:12.229Z,18.00
2023-04-21T09:11:24.892Z,17.70
2023-04-21T09:18:02.862Z,17.00
2023-04-21T09:20:31.556Z,16.60
2023-04-21T09:22:59.972Z,16.50
2023-04-21T09:25:28.379Z,17.70
2023-04-21T09:27:57.267Z,18.00
2023-04-21T09:30:26.138Z,17.70
2023-04-21T09:32:58.107Z,17.30
2023-04-21T09:35:31.034Z,16.90
2023-04-21T09:37:59.642Z,16.80
2023-04-21T09:40:29.548Z,17.40
2023-04-21T09:42:58.143Z,17.30
2023-04-21T09:45:39.526Z,17.00
2023-04-21T09:48:11.349Z,18.20
2023-04-21T09:51:20.963Z,18.90
2023-04-21T09:53:35.792Z,18.90
2023-04-21T09:56:06.169Z,18.50
2023-04-21T09:58:42.608Z,19.00
2023-04-21T10:01:11.453Z,19.00
2023-04-21T10:03:41.257Z,18.60
2023-04-21T10:06:12.798Z,18.40
2023-04-21T10:08:42.905Z,18.20
2023-04-21T10:11:13.193Z,18.00
2023-04-21T10:13:43.634Z,18.60
2023-04-21T10:16:12.701Z,19.20
2023-04-21T10:18:45.716Z,19.30
2023-04-21T10:21:22.110Z,20.00
2023-04-21T10:23:53.108Z,20.00
2023-04-21T10:26:27.098Z,19.90
2023-04-21T10:28:57.504Z,19.70
2023-04-21T10:31:31.432Z,19.10
2023-04-21T10:34:23.384Z,18.50
2023-04-21T10:37:13.321Z,19.00
2023-04-21T10:39:56.190Z,20.00
2023-04-21T10:42:30.292Z,20.70
2023-04-21T10:45:12.790Z,21.50
2023-04-21T10:47:44.581Z,21.70
2023-04-21T10:50:15.970Z,22.10
2023-04-21T10:52:57.779Z,22.00
2023-04-21T10:55:31.128Z,22.40
2023-04-21T10:58:04.061Z,22.40
2023-04-21T11:00:33.835Z,22.00
2023-04-21T11:03:04.924Z,22.00
2023-04-21T11:05:36.534Z,22.10
2023-04-21T11:08:09.668Z,22.30
2023-04-21T11:10:57.721Z,22.60
2023-04-21T11:13:29.189Z,23.10
2023-04-21T11:15:59.228Z,23.20
2023-04-21T11:18:49.148Z,23.70
2023-04-21T11:21:22.675Z,23.90
2023-04-21T11:23:54.505Z,23.80
2023-04-21T11:26:33.967Z,23.50
2023-04-21T11:29:03.942Z,23.50
2023-04-21T11:31:58.732Z,23.60
2023-04-21T11:34:52.319Z,23.60
2023-04-21T11:37:25.750Z,23.40
2023-04-21T11:40:03.352Z,23.50
2023-04-21T11:42:32.339Z,23.60
2023-04-21T11:45:00.718Z,23.70
2023-04-21T11:50:12.200Z,23.60
2023-04-21T11:52:42.140Z,23.80
2023-04-21T11:55:18.019Z,23.90
2023-04-21T11:57:46.559Z,23.50
2023-04-21T12:00:15.936Z,23.60
2023-04-21T12:02:45.319Z,23.60
2023-04-21T12:05:14.758Z,23.40
2023-04-21T12:07:47.964Z,23.30
2023-04-21T12:10:20.329Z,22.90
2023-04-21T12:14:05.060Z,22.50
2023-04-21T12:16:33.496Z,21.80
2023-04-21T12:19:01.965Z,21.60
2023-04-21T12:21:30.639Z,22.00
2023-04-21T12:23:58.912Z,21.90
2023-04-21T12:26:28.690Z,22.20
2023-04-21T12:29:44.408Z,22.30
2023-04-21T12:32:13.007Z,22.50
2023-04-21T12:34:41.781Z,22.10
2023-04-21T12:37:10.749Z,22.00
2023-04-21T12:39:39.136Z,22.00
2023-04-21T12:42:10.349Z,22.00
2023-04-21T12:44:40.930Z,21.70
2023-04-21T12:47:09.818Z,21.70
2023-04-21T12:49:38.509Z,21.30
2023-04-21T12:52:07.117Z,21.20
2023-04-21T12:57:45.273Z,21.20
2023-04-21T13:00:15.399Z,21.00
2023-04-21T13:02:44.737Z,21.00
2023-04-21T13:05:13.594Z,21.00
2023-04-21T14:07:28.416Z,18.20
2023-04-21T14:09:58.184Z,18.10
2023-04-21T14:12:26.852Z,18.20
2023-04-21T14:14:55.411Z,18.10
2023-04-21T14:17:24.309Z,17.90
2023-04-21T14:19:55.120Z,17.90
2023-04-21T14:22:24.373Z,18.00
2023-04-21T14:24:54.308Z,17.90
2023-04-21T14:27:24.376Z,17.90
2023-04-21T14:29:53.005Z,17.90
2023-04-21T14:32:21.658Z,18.00
2023-04-21T14:34:53.392Z,17.90
2023-04-21T14:37:22.539Z,17.80
2023-04-21T14:39:51.233Z,17.80
2023-04-21T14:42:21.083Z,17.90
2023-04-21T14:44:49.622Z,18.00
2023-04-21T14:47:18.185Z,18.00
2023-04-21T14:49:47.261Z,17.80
2023-04-21T14:52:15.821Z,17.70
2023-04-21T14:54:44.206Z,17.70
2023-04-21T14:57:19.566Z,17.60
2023-04-21T14:59:51.932Z,17.40
2023-04-21T15:02:21.351Z,17.30
2023-04-21T15:04:50.914Z,17.30
2023-04-21T15:07:24.223Z,17.30
2023-04-21T15:09:55.383Z,17.30
2023-04-21T15:12:24.029Z,17.30
2023-04-21T15:14:53.852Z,17.20
2023-04-21T15:17:22.628Z,17.10
2023-04-21T15:19:51.191Z,17.10
2023-04-21T15:22:19.855Z,17.10
2023-04-21T15:24:48.322Z,17.10
2023-04-21T15:27:17.436Z,17.20
2023-04-21T15:29:45.854Z,17.20
2023-04-21T15:32:16.725Z,17.20
2023-04-21T15:34:45.144Z,17.10
2023-04-21T15:37:17.499Z,16.90
2023-04-21T15:39:45.829Z,16.80
2023-04-21T15:42:14.236Z,16.70
2023-04-21T15:44:47.197Z,16.70
2023-04-21T15:47:17.525Z,16.60
2023-04-21T15:49:45.944Z,16.50
2023-04-21T15:52:14.319Z,16.50
2023-04-21T15:54:42.845Z,16.60
2023-04-21T16:01:20.137Z,16.60
2023-04-21T16:03:50.656Z,16.50
2023-04-21T16:07:38.179Z,16.50
2023-04-21T16:10:08.196Z,16.30
2023-04-21T16:12:37.257Z,16.20
2023-04-21T16:15:22.965Z,16.00
2023-04-21T16:18:00.107Z,16.00
2023-04-21T16:20:31.179Z,16.10
2023-04-21T16:23:01.078Z,16.10
2023-04-21T16:25:30.142Z,16.10
2023-04-21T16:28:00.992Z,16.10
2023-04-21T16:30:32.344Z,16.00
2023-04-21T16:33:06.664Z,16.00
2023-04-21T16:35:36.745Z,15.80
2023-04-21T16:38:05.896Z,15.70
2023-04-21T16:40:35.611Z,15.60
2023-04-21T16:43:05.099Z,15.60
2023-04-21T16:45:35.107Z,15.60
2023-04-21T16:48:09.631Z,15.60
2023-04-21T16:50:43.173Z,15.60
2023-04-21T16:53:14.426Z,15.80
2023-04-21T16:55:44.789Z,15.80
2023-04-21T16:58:13.624Z,15.80
2023-04-21T17:00:42.471Z,15.80
2023-04-21T17:03:12.607Z,15.80
2023-04-21T17:05:43.058Z,15.60
2023-04-21T17:08:14.856Z,15.50
2023-04-21T17:10:43.772Z,15.40
2023-04-21T17:13:12.390Z,15.40
2023-04-21T17:15:41.622Z,15.20
2023-04-21T17:18:12.184Z,15.10
2023-04-21T17:20:42.272Z,15.10
2023-04-21T17:23:10.772Z,15.10
2023-04-21T17:25:40.956Z,14.90
2023-04-21T17:28:09.560Z,14.90
2023-04-21T17:30:38.107Z,14.90
2023-04-21T17:33:17.308Z,14.80
2023-04-21T17:36:02.302Z,14.70
2023-04-21T17:38:32.456Z,14.70
2023-04-21T17:41:02.355Z,14.70
2023-04-21T17:43:31.006Z,14.80
2023-04-21T17:45:59.441Z,14.80
2023-04-21T17:48:28.140Z,14.90
2023-04-21T17:50:58.041Z,14.90
2023-04-21T17:53:26.596Z,14.90
2023-04-21T17:55:55.101Z,14.70
2023-04-21T17:58:23.831Z,14.70
2023-04-21T18:00:52.435Z,14.80
2023-04-21T18:03:22.481Z,14.80
2023-04-21T18:05:53.006Z,14.80
2023-04-21T18:11:20.675Z,14.60
2023-04-21T18:13:49.166Z,14.50
2023-04-21T18:16:17.938Z,14.40
2023-04-21T18:18:47.561Z,14.40
2023-04-21T18:21:16.298Z,14.30
2023-04-21T18:23:46.637Z,14.20
2023-04-21T18:26:15.733Z,14.20
2023-04-21T18:31:40.574Z,14.20
2023-04-21T18:34:09.205Z,14.10
2023-04-21T18:36:38.637Z,14.10
2023-04-21T18:39:08.673Z,14.00
2023-04-21T18:41:37.215Z,14.00
2023-04-21T18:44:06.421Z,13.90
2023-04-21T18:46:35.253Z,13.90
2023-04-21T18:49:03.967Z,13.80
2023-04-21T18:51:32.557Z,13.80
2023-04-21T18:54:01.186Z,13.70
2023-04-21T18:56:32.719Z,13.70
2023-04-21T18:59:01.720Z,13.70
2023-04-21T19:01:30.459Z,13.60
2023-04-21T19:04:13.899Z,13.60
2023-04-21T19:06:42.858Z,13.50
2023-04-21T19:09:11.499Z,13.40
2023-04-21T19:11:41.504Z,13.40
2023-04-21T19:14:10.023Z,13.40
2023-04-21T19:16:39.178Z,13.30
2023-04-21T19:19:07.970Z,13.30
2023-04-21T19:21:36.558Z,13.20
2023-04-21T19:24:05.307Z,13.20
2023-04-21T19:26:34.031Z,13.20
2023-04-21T19:29:04.920Z,13.10
2023-04-21T19:31:33.445Z,13.10
2023-04-21T19:34:01.875Z,13.00
2023-04-21T19:36:31.234Z,13.00
2023-04-21T19:39:00.019Z,13.00
2023-04-21T19:41:28.458Z,12.90
2023-04-21T19:43:57.941Z,12.90
2023-04-21T19:46:27.995Z,12.90
2023-04-21T19:48:56.919Z,12.80
2023-04-21T19:51:25.423Z,12.80
2023-04-21T19:54:07.338Z,12.70
2023-04-21T19:56:39.094Z,12.60
2023-04-21T19:59:07.762Z,12.60
2023-04-21T20:01:37.868Z,12.50
2023-04-21T20:04:07.045Z,12.40
2023-04-21T20:06:35.852Z,12.40
2023-04-21T20:09:05.890Z,12.30
2023-04-21T20:11:34.838Z,12.20
2023-04-21T20:14:03.442Z,12.20
2023-04-21T20:16:32.963Z,12.10
2023-04-21T20:19:04.377Z,12.00
2023-04-21T20:21:33.542Z,12.00
2023-04-21T20:24:02.466Z,11.90
2023-04-21T20:26:30.976Z,11.80
2023-04-21T20:28:59.598Z,11.80
2023-04-21T20:31:28.313Z,11.70
2023-04-21T20:33:57.416Z,11.70
2023-04-21T20:36:27.567Z,11.70
2023-04-21T20:38:57.337Z,11.60
2023-04-21T20:41:27.857Z,11.60
2023-04-21T20:43:56.635Z,11.50
2023-04-21T20:46:25.256Z,11.50
2023-04-21T20:48:53.785Z,11.40
2023-04-21T20:51:22.163Z,11.40
2023-04-21T20:53:51.975Z,11.30
2023-04-21T20:56:21.556Z,11.30
2023-04-21T20:58:50.637Z,11.30
2023-04-21T21:01:19.174Z,11.30
2023-04-21T21:03:47.921Z,11.20
2023-04-21T21:06:16.788Z,11.20
2023-04-21T21:08:45.367Z,11.20
2023-04-21T21:11:15.229Z,11.10
2023-04-21T21:13:43.864Z,11.10
2023-04-21T21:16:12.377Z,11.10
2023-04-21T21:18:40.947Z,11.00
2023-04-21T21:21:09.348Z,11.00
2023-04-21T21:23:37.806Z,11.00
2023-04-21T21:26:06.728Z,11.00
2023-04-21T21:28:36.701Z,11.00
2023-04-21T21:31:05.279Z,11.00
2023-04-21T21:33:33.751Z,11.00
2023-04-21T21:36:02.227Z,11.00
2023-04-21T21:38:30.572Z,10.90
2023-04-21T21:40:58.961Z,11.00
2023-04-21T21:43:27.364Z,11.00
2023-04-21T21:45:57.235Z,11.00
2023-04-21T21:48:25.740Z,11.00
2023-04-21T21:50:54.130Z,10.90
2023-04-21T21:53:22.446Z,10.90
2023-04-21T21:55:51.366Z,10.90
2023-04-21T21:58:19.961Z,10.90
2023-04-21T22:00:51.735Z,10.80
2023-04-21T22:03:22.173Z,10.80
2023-04-21T22:05:50.731Z,10.80
2023-04-21T22:08:19.106Z,10.80
2023-04-21T22:10:47.412Z,10.80
2023-04-21T22:13:15.810Z,10.80
2023-04-21T22:15:44.209Z,10.80
2023-04-21T22:18:12.601Z,10.80
2023-04-21T22:20:42.704Z,10.80
2023-04-21T22:23:11.104Z,10.80
2023-04-21T22:25:39.497Z,10.80
2023-04-21T22:28:07.879Z,10.80
2023-04-21T22:30:36.513Z,10.70
2023-04-21T22:33:05.282Z,10.70
2023-04-21T22:35:33.578Z,10.70
2023-04-21T22:38:03.298Z,10.70
2023-04-21T22:40:31.684Z,10.70
2023-04-21T22:43:00.032Z,10.70
2023-04-21T22:45:28.500Z,10.70
2023-04-21T22:47:56.875Z,10.80
2023-04-21T22:50:25.645Z,10.70
2023-04-21T22:52:53.917Z,10.80
2023-04-21T22:55:23.620Z,10.80
2023-04-21T22:57:52.036Z,10.80
2023-04-21T23:00:20.346Z,10.80
2023-04-21T23:02:48.765Z,10.80
2023-04-21T23:05:17.357Z,10.80
2023-04-21T23:07:45.687Z,10.80
2023-04-21T23:10:14.000Z,10.80
2023-04-21T23:12:43.621Z,10.80
2023-04-21T23:15:12.570Z,10.90
2023-04-21T23:17:42.555Z,10.90
2023-04-21T23:20:11.903Z,10.90
2023-04-21T23:22:41.023Z,10.90
2023-04-21T23:25:10.433Z,10.90
2023-04-21T23:27:38.737Z,10.90
2023-04-21T23:30:10.042Z,10.90
2023-04-21T23:32:38.446Z,10.90
2023-04-21T23:35:07.588Z,10.90
2023-04-21T23:37:35.821Z,10.90
2023-04-21T23:40:08.917Z,10.90
2023-04-21T23:42:37.248Z,10.90
2023-04-21T23:45:06.415Z,10.90
2023-04-21T23:47:36.112Z,10.90
2023-04-21T23:50:05.685Z,10.90
2023-04-21T23:52:34.078Z,10.90
2023-04-21T23:55:02.440Z,10.90
2023-04-21T23:57:30.760Z,10.90
2023-04-21T23:59:59.025Z,10.90
